Terminal Aerodrome Forecast
Issued by NWS Wakefield, VA

Home | Current Version | Previous Version | Text Only | Print | Product List | Glossary On
Versions: 1 2 3 4 5 6 7 8 9 10 11 12 13 14 15 16 17 18 19
602
FTUS41 KAKQ 091734
TAFSBY
TAF
KSBY 091734Z 0918/1018 VRB05KT 6SM -RA BKN012
      TEMPO 0920/0924 5SM -RASN BKN008
     FM100200 28008KT P6SM BKN040=

USA.gov is the U.S. government's official web portal to all federal, state and local government web resources and services.